Time;durP1;ratioP1;P1;durP2;ratioP2;P2;SDS_P1;SDS_P2;PMS_P1;PMS_P2;Temp;Humidity;BMP_temperature;BMP_pressure;BME280_temperature;BME280_humidity;BME280_pressure;Samples;Min_cycle;Max_cycle;Signal;HPM_P1;HPM_P2
2022/02/05 00:06:15;;;;;;;;;;;;;;;3.66;91.16;96881.00;5060153;28;20007;-64
2022/02/05 00:08:33;;;;;;;;;;;;;;;3.84;90.63;96882.41;5049117;28;19920;-63
2022/02/05 00:11:19;;;;;;;;;;;;;;;3.98;89.83;96892.72;5053421;28;20267;-63
2022/02/05 00:38:26;;;;;;;;;;;;;;;3.21;90.16;96938.16;5076839;28;19927;-63
2022/02/05 00:43:17;;;;;;;;;;;;;;;3.24;91.33;96945.56;5057069;28;19920;-63
2022/02/05 00:45:47;;;;;;;;;;;;;;;3.28;90.02;96947.66;5057121;28;19917;-63
2022/02/05 00:48:13;;;;;;;;;;;;;;;3.25;89.28;96952.34;5057014;28;20027;-63
2022/02/05 00:50:42;;;;;;;;;;;;;;;3.02;88.40;96951.59;5063645;28;19928;-63
2022/02/05 00:53:29;;;;;;;;;;;;;;;2.93;87.86;96950.88;5056772;28;19923;-66
2022/02/05 00:56:03;;;;;;;;;;;;;;;2.84;86.78;96952.69;5057596;28;19917;-63
2022/02/05 00:58:29;;;;;;;;;;;;;;;2.69;85.76;96976.91;5056958;28;19917;-63
2022/02/05 01:00:54;;;;;;;;;;;;;;;2.78;85.50;96979.28;5059387;28;19939;-63
2022/02/05 01:03:19;;;;;;;;;;;;;;;2.50;85.43;96986.75;5045610;28;19916;-63
2022/02/05 01:05:44;;;;;;;;;;;;;;;2.35;86.42;96987.63;5076295;28;19960;-63
2022/02/05 01:08:10;;;;;;;;;;;;;;;2.37;85.65;96986.50;5074087;28;19970;-63
2022/02/05 01:10:35;;;;;;;;;;;;;;;2.29;85.24;97002.03;5072503;28;19971;-65
2022/02/05 01:13:05;;;;;;;;;;;;;;;2.18;86.42;96996.44;5068579;28;19916;-63
2022/02/05 01:15:34;;;;;;;;;;;;;;;2.13;84.28;97001.31;5056528;28;19917;-64
2022/02/05 01:18:03;;;;;;;;;;;;;;;2.22;83.63;97011.47;5067276;28;19916;-64
2022/02/05 01:23:06;;;;;;;;;;;;;;;2.19;82.46;97011.78;5056392;28;19920;-63
2022/02/05 01:25:37;;;;;;;;;;;;;;;2.10;81.77;97030.91;5038460;28;19963;-63
2022/02/05 01:28:10;;;;;;;;;;;;;;;2.13;81.89;97030.56;5070660;28;19920;-63
2022/02/05 01:30:40;;;;;;;;;;;;;;;2.27;81.67;97029.06;5056848;28;19927;-64
2022/02/05 01:52:16;;;;;;;2.80;1.45;;;;;;;2.24;80.93;97039.72;5070266;28;20438;-64
2022/02/05 01:55:08;;;;;;;1.50;1.40;;;;;;;2.17;81.66;97051.75;5059826;28;20511;-64
2022/02/05 01:57:53;;;;;;;3.22;1.48;;;;;;;2.18;81.13;97041.19;5057180;28;20398;-64
2022/02/05 02:21:57;;;;;;;1.77;1.60;;;;;;;1.99;83.13;97065.69;5069978;28;20428;-64
2022/02/05 02:32:09;;;;;;;3.70;1.63;;;;;;;1.94;83.78;97074.91;5061667;28;20399;-64
2022/02/05 02:34:40;;;;;;;1.63;1.52;;;;;;;1.89;83.97;97070.25;5073161;28;20400;-64
2022/02/05 02:37:11;;;;;;;2.35;1.45;;;;;;;1.96;83.67;97071.16;5073247;28;20383;-64
2022/02/05 02:39:53;;;;;;;2.38;1.60;;;;;;;2.00;83.13;97079.41;5054465;28;20964;-63
2022/02/05 02:42:20;;;;;;;1.95;1.42;;;;;;;2.00;83.13;97077.63;5072567;28;20430;-64
2022/02/05 02:44:45;;;;;;;4.07;1.58;;;;;;;1.85;84.39;97081.03;5072603;28;20399;-64
2022/02/05 02:47:10;;;;;;;2.73;1.63;;;;;;;1.93;83.34;97078.47;5072389;28;20396;-64
2022/02/05 02:57:33;;;;;;;1.80;1.60;;;;;;;1.76;84.63;97080.25;5057971;28;20744;-63
2022/02/05 03:00:03;;;;;;;4.75;2.08;;;;;;;1.71;84.94;97081.72;5045439;28;20401;-63
2022/02/05 03:02:28;;;;;;;1.90;1.70;;;;;;;1.72;85.13;97083.34;5066027;28;20919;-63
2022/02/05 03:04:55;;;;;;;2.33;1.70;;;;;;;1.61;86.00;97082.72;5071956;28;20392;-64
2022/02/05 03:07:25;;;;;;;2.47;2.00;;;;;;;1.79;85.68;97089.44;5068935;28;20906;-64
2022/02/05 03:09:52;;;;;;;2.37;1.70;;;;;;;1.81;85.15;97095.28;5052508;28;20393;-64
2022/02/05 03:12:19;;;;;;;2.63;1.52;;;;;;;1.77;84.78;97096.56;5055309;28;20397;-63
2022/02/05 03:14:45;;;;;;;2.83;1.73;;;;;;;1.69;85.02;97092.22;5052590;28;20432;-63
2022/02/05 03:17:22;;;;;;;2.83;2.05;;;;;;;1.64;84.30;97090.13;5054125;28;20453;-63
2022/02/05 03:19:49;;;;;;;3.05;2.00;;;;;;;1.79;83.58;97084.28;5071659;28;20399;-63
2022/02/05 03:22:16;;;;;;;2.00;1.85;;;;;;;1.73;83.09;97090.91;5043640;28;20444;-63
2022/02/05 03:24:41;;;;;;;3.20;1.90;;;;;;;1.55;83.72;97105.81;5052963;28;20386;-63
2022/02/05 03:27:07;;;;;;;3.88;2.13;;;;;;;1.68;83.30;97101.75;5052078;28;20465;-63
2022/02/05 03:29:33;;;;;;;2.85;2.22;;;;;;;1.58;83.94;97108.03;5052354;28;20386;-63
2022/02/05 03:31:59;;;;;;;2.50;2.00;;;;;;;1.53;83.43;97116.28;5060429;28;20399;-63
2022/02/05 03:34:24;;;;;;;4.77;2.30;;;;;;;1.56;83.70;97121.13;5060767;28;20750;-64
2022/02/05 03:36:50;;;;;;;3.40;2.08;;;;;;;1.79;83.38;97120.44;5052222;28;20393;-64
2022/02/05 03:39:15;;;;;;;5.05;2.10;;;;;;;1.72;83.01;97119.50;5071308;28;20441;-64
2022/02/05 03:41:40;;;;;;;3.93;1.87;;;;;;;1.61;83.81;97136.97;5071953;28;20454;-64
2022/02/05 03:44:06;;;;;;;2.93;2.07;;;;;;;1.71;83.04;97135.97;5061993;28;20759;-63
2022/02/05 03:46:33;;;;;;;4.70;2.58;;;;;;;1.79;82.83;97141.13;5065994;28;20423;-63
2022/02/05 03:48:58;;;;;;;4.50;2.10;;;;;;;1.58;82.87;97136.47;5071344;28;20395;-64
2022/02/05 03:51:24;;;;;;;2.45;2.25;;;;;;;1.59;83.67;97138.09;5067501;28;20400;-64
2022/02/05 03:53:50;;;;;;;2.58;2.22;;;;;;;1.60;83.08;97143.09;5058987;28;20383;-63
2022/02/05 03:56:16;;;;;;;3.92;2.35;;;;;;;1.54;83.79;97140.34;5061689;28;20393;-64
2022/02/05 03:58:41;;;;;;;2.30;2.10;;;;;;;1.55;83.43;97152.28;5051831;28;20385;-64
2022/02/05 04:01:07;;;;;;;3.75;2.25;;;;;;;1.58;83.58;97154.53;5051680;28;20870;-64
2022/02/05 04:03:32;;;;;;;3.10;2.20;;;;;;;1.49;83.25;97158.09;5056189;28;20484;-64
2022/02/05 04:05:58;;;;;;;5.77;2.40;;;;;;;1.45;83.73;97164.56;5071776;28;20689;-64
2022/02/05 04:08:24;;;;;;;6.33;2.43;;;;;;;1.45;83.30;97170.50;5062420;28;20205;-64
2022/02/05 04:11:09;;;;;;;3.37;2.23;;;;;;;1.33;83.57;97171.00;5053866;28;20184;-63
2022/02/05 04:18:52;;;;;;;4.10;2.50;;;;;;;1.22;84.62;97185.81;5072457;28;20220;-64
2022/02/05 04:21:17;;;;;;;5.60;2.20;;;;;;;1.37;84.46;97191.16;5056407;28;20182;-63
2022/02/05 04:23:43;;;;;;;4.80;2.10;;;;;;;1.30;83.72;97191.94;5052980;28;20213;-63
2022/02/05 04:26:09;;;;;;;4.67;1.90;;;;;;;1.17;84.24;97195.78;5052543;28;20186;-63
2022/02/05 04:28:35;;;;;;;4.63;2.50;;;;;;;1.22;84.71;97196.16;5052655;28;20209;-64
2022/02/05 04:31:01;;;;;;;7.73;2.00;;;;;;;1.25;85.06;97205.34;5065463;28;20193;-64
2022/02/05 04:33:26;;;;;;;5.00;2.10;;;;;;;1.32;84.13;97202.94;5054014;28;20197;-64
2022/02/05 04:35:52;;;;;;;4.10;2.33;;;;;;;1.38;84.11;97208.28;5053145;28;20186;-63
2022/02/05 04:38:19;;;;;;;2.90;2.43;;;;;;;1.51;84.53;97212.97;5052536;28;20190;-64
2022/02/05 04:46:03;;;;;;;3.27;2.33;;;;;;;1.47;84.56;97216.84;5072672;28;20182;-65
2022/02/05 04:49:24;;;;;;;2.33;2.13;;;;;;;1.67;84.12;97225.94;5042005;28;20561;-63
2022/02/05 04:51:45;;;;;;;2.93;2.20;;;;;;;1.65;83.75;97222.69;5030831;28;20225;-63
2022/02/05 05:20:09;;;;;;;3.20;2.90;;;;;;;1.87;83.30;97223.81;5074859;28;20548;-64
2022/02/05 05:22:34;;;;;;;6.27;2.47;;;;;;;1.98;82.97;97226.09;5061013;28;20198;-64
2022/02/05 05:25:00;;;;;;;4.70;2.43;;;;;;;1.89;83.59;97221.91;5055684;28;20189;-64
2022/02/05 05:27:26;;;;;;;4.90;2.90;;;;;;;1.94;83.52;97229.97;5055876;28;20185;-64
2022/02/05 05:29:52;;;;;;;4.13;2.10;;;;;;;2.01;82.87;97228.34;5071563;28;20236;-64
2022/02/05 05:32:18;;;;;;;3.93;2.53;;;;;;;2.04;82.73;97231.44;5064208;28;20185;-64
2022/02/05 05:34:43;;;;;;;3.33;1.77;;;;;;;2.08;83.12;97230.13;5055513;28;20607;-64
2022/02/05 05:37:08;;;;;;;2.87;2.47;;;;;;;1.96;83.22;97235.78;5055705;28;20268;-64
2022/02/05 05:39:37;;;;;;;4.63;2.33;;;;;;;2.06;83.23;97239.03;5068973;28;20229;-64
2022/02/05 05:42:05;;;;;;;4.20;2.13;;;;;;;2.09;83.07;97242.09;5073172;28;20201;-64
2022/02/05 05:44:53;;;;;;;2.47;2.27;;;;;;;2.04;83.29;97235.78;5075211;28;20590;-67
2022/02/05 05:48:07;;;;;;;6.20;2.30;;;;;;;1.95;84.55;97244.53;5073970;28;20230;-64
2022/02/05 05:50:11;;;;;;;3.53;2.10;;;;;;;2.01;82.97;97243.84;5067145;28;20664;-63
2022/02/05 05:52:37;;;;;;;4.73;2.60;;;;;;;1.90;84.33;97246.75;5061801;28;20613;-64
2022/02/05 05:55:03;;;;;;;7.60;2.40;;;;;;;1.87;84.63;97247.91;5055178;28;20209;-66
2022/02/05 05:57:29;;;;;;;3.57;2.30;;;;;;;1.92;84.46;97247.41;5055616;28;20212;-64
2022/02/05 05:59:54;;;;;;;4.37;2.47;;;;;;;2.07;84.26;97249.19;5055602;28;20212;-63
2022/02/05 06:02:20;;;;;;;4.03;2.30;;;;;;;1.99;84.09;97256.16;5055746;28;20241;-64
2022/02/05 06:04:46;;;;;;;6.83;2.73;;;;;;;2.08;84.37;97257.75;5037463;28;20193;-64
2022/02/05 06:07:11;;;;;;;3.47;2.40;;;;;;;2.12;83.76;97268.59;5055130;28;20625;-64
2022/02/05 06:09:40;;;;;;;4.97;2.53;;;;;;;2.10;84.66;97271.34;5054854;28;20546;-64
2022/02/05 06:12:08;;;;;;;2.87;2.10;;;;;;;2.06;84.23;97275.22;5062831;28;20185;-64
2022/02/05 06:14:33;;;;;;;3.00;1.80;;;;;;;2.13;84.55;97270.19;5063805;28;20204;-64
2022/02/05 06:17:05;;;;;;;5.10;2.23;;;;;;;2.25;83.79;97281.81;5058285;28;20638;-64
2022/02/05 06:19:31;;;;;;;3.77;2.47;;;;;;;2.25;84.23;97276.66;5054263;28;20182;-64
2022/02/05 06:21:56;;;;;;;3.87;2.40;;;;;;;2.24;84.05;97286.19;5054215;28;20205;-65
2022/02/05 06:24:21;;;;;;;5.93;2.20;;;;;;;2.26;83.86;97286.84;5036874;28;20182;-64
2022/02/05 06:26:47;;;;;;;4.60;2.30;;;;;;;2.22;84.17;97292.50;5055179;28;20193;-63
2022/02/05 06:29:12;;;;;;;3.17;2.00;;;;;;;2.04;85.24;97287.47;5054217;28;20242;-63
2022/02/05 06:31:38;;;;;;;2.23;2.13;;;;;;;2.23;84.49;97292.31;5054632;28;20193;-64
2022/02/05 06:34:03;;;;;;;2.60;2.40;;;;;;;2.25;84.03;97302.50;5054685;28;20202;-63
2022/02/05 06:36:28;;;;;;;3.27;2.27;;;;;;;2.19;84.77;97290.22;5065920;28;20652;-64
2022/02/05 06:38:54;;;;;;;6.90;2.90;;;;;;;2.17;84.84;97294.78;5059116;28;20186;-64
2022/02/05 06:41:19;;;;;;;3.00;2.40;;;;;;;2.17;84.40;97295.59;5072388;28;20225;-63
2022/02/05 06:43:45;;;;;;;4.50;3.03;;;;;;;2.36;84.00;97302.19;5055946;28;20200;-64
2022/02/05 06:46:10;;;;;;;2.53;2.30;;;;;;;2.19;84.12;97305.75;5073872;28;20189;-64
2022/02/05 06:48:35;;;;;;;3.60;2.63;;;;;;;2.20;84.72;97310.75;5062395;28;20228;-63
2022/02/05 06:51:01;;;;;;;4.97;2.73;;;;;;;2.23;84.66;97304.47;5054005;28;20273;-65
2022/02/05 06:53:26;;;;;;;2.87;2.53;;;;;;;2.38;83.39;97311.41;5072924;28;20189;-64
2022/02/05 06:55:51;;;;;;;8.33;3.33;;;;;;;2.21;84.10;97314.16;5072333;28;20173;-64
2022/02/05 06:58:17;;;;;;;4.17;2.60;;;;;;;2.22;84.85;97313.19;5046845;28;20332;-63
2022/02/05 07:00:42;;;;;;;4.13;2.43;;;;;;;2.24;84.14;97309.47;5054301;28;20193;-63
2022/02/05 07:03:10;;;;;;;3.57;2.50;;;;;;;2.26;84.22;97320.47;5054041;28;20201;-63
2022/02/05 07:05:36;;;;;;;4.33;2.50;;;;;;;2.25;84.26;97330.97;5053606;28;20668;-65
2022/02/05 07:08:01;;;;;;;2.63;2.40;;;;;;;2.26;84.26;97341.16;5056199;28;20186;-64
2022/02/05 07:10:27;;;;;;;3.47;2.40;;;;;;;2.25;84.42;97339.53;5073241;28;20264;-63
2022/02/05 07:15:23;;;;;;;3.73;2.27;;;;;;;2.22;85.58;97337.28;5071061;28;20189;-64
2022/02/05 07:18:11;;;;;;;3.73;2.60;;;;;;;2.33;85.18;97334.38;5068692;28;20170;-64
2022/02/05 07:20:41;;;;;;;3.00;2.30;;;;;;;2.53;83.00;97337.44;5068278;28;20607;-64
2022/02/05 07:23:32;;;;;;;4.70;2.93;;;;;;;2.46;83.26;97336.44;5055458;28;20197;-63
2022/02/05 07:31:23;;;;;;;2.43;2.00;;;;;;;2.38;83.67;97347.63;5072490;28;20188;-64
2022/02/05 07:33:48;;;;;;;8.97;2.30;;;;;;;1.86;86.96;97348.84;5057274;28;20181;-66
2022/02/05 07:36:16;;;;;;;4.37;2.27;;;;;;;2.14;87.80;97349.38;5073134;28;20265;-65
2022/02/05 07:38:42;;;;;;;5.70;2.30;;;;;;;2.45;84.99;97358.91;5053345;28;20638;-65
2022/02/05 07:41:07;;;;;;;;;;;;;;;2.68;83.91;97355.69;5053537;28;20036;-65
2022/02/05 07:43:35;;;;;;;;;;;;;;;2.70;82.96;97359.75;5036890;28;19923;-65
2022/02/05 07:46:04;;;;;;;;;;;;;;;2.86;82.19;97362.31;5049180;28;20431;-65
2022/02/05 07:48:30;;;;;;;;;;;;;;;2.95;81.34;97365.72;5053415;28;19916;-65
2022/02/05 07:50:56;;;;;;;;;;;;;;;3.10;81.69;97376.19;5053514;28;19924;-65
2022/02/05 07:53:22;;;;;;;;;;;;;;;2.92;81.40;97373.78;5069645;28;19955;-66
2022/02/05 07:55:47;;;;;;;;;;;;;;;3.14;80.46;97373.09;5072246;28;20341;-65
2022/02/05 07:58:12;;;;;;;;;;;;;;;3.32;80.57;97360.75;5073073;28;20361;-64
2022/02/05 08:00:38;;;;;;;;;;;;;;;3.37;79.63;97365.44;5066052;28;19967;-64
2022/02/05 08:03:03;;;;;;;;;;;;;;;3.45;78.92;97367.19;5073157;28;20313;-64
2022/02/05 08:05:28;;;;;;;;;;;;;;;3.45;78.49;97369.78;5072784;28;19966;-65
2022/02/05 08:07:53;;;;;;;;;;;;;;;3.53;78.32;97372.34;5072780;28;19992;-65
2022/02/05 08:10:27;;;;;;;;;;;;;;;3.85;76.43;97368.78;5066063;28;19920;-65
2022/02/05 08:12:56;;;;;;;;;;;;;;;3.73;77.40;97363.97;5038700;28;19916;-65
2022/02/05 08:15:23;;;;;;;;;;;;;;;3.79;76.62;97372.09;5065597;28;19916;-64
2022/02/05 08:17:49;;;;;;;;;;;;;;;3.77;77.45;97372.25;5045855;28;20269;-64
2022/02/05 08:20:14;;;;;;;;;;;;;;;3.92;76.73;97375.72;5065704;28;19927;-65
2022/02/05 08:22:40;;;;;;;;;;;;;;;4.09;76.19;97385.03;5054043;28;19928;-66
2022/02/05 08:25:05;;;;;;;;;;;;;;;4.17;74.63;97389.38;5073242;28;19916;-65
2022/02/05 08:27:30;;;;;;;;;;;;;;;4.09;75.54;97392.81;5072633;28;19916;-64
2022/02/05 08:29:59;;;;;;;;;;;;;;;4.05;75.52;97388.16;5069374;28;19917;-64
2022/02/05 08:32:26;;;;;;;;;;;;;;;3.95;75.26;97388.38;5052961;28;19923;-65
2022/02/05 08:34:52;;;;;;;;;;;;;;;4.04;75.43;97389.13;5035261;28;19931;-64
2022/02/05 08:37:18;;;;;;;;;;;;;;;4.08;75.46;97390.38;5058458;28;19917;-66
2022/02/05 08:39:43;;;;;;;;;;;;;;;4.15;74.77;97392.13;5071102;28;19970;-66
2022/02/05 08:42:08;;;;;;;;;;;;;;;4.13;75.08;97394.09;5053166;28;20008;-65
2022/02/05 08:44:33;;;;;;;;;;;;;;;3.94;74.85;97391.13;5052845;28;19919;-66
2022/02/05 08:47:00;;;;;;;;;;;;;;;4.05;75.45;97395.94;5053827;28;19952;-65
2022/02/05 08:49:28;;;;;;;;;;;;;;;4.05;74.97;97388.16;5053002;28;19975;-66
2022/02/05 08:51:54;;;;;;;;;;;;;;;4.22;75.10;97383.66;5072318;28;19920;-66
2022/02/05 08:54:19;;;;;;;;;;;;;;;4.07;75.93;97392.16;5064380;28;20293;-66
2022/02/05 08:56:44;;;;;;;;;;;;;;;4.30;74.74;97399.16;5056594;28;19924;-65
2022/02/05 08:59:09;;;;;;;;;;;;;;;4.42;74.72;97392.59;5070302;28;19924;-64
2022/02/05 09:02:14;;;;;;;;;;;;;;;4.46;74.33;97399.88;5075892;28;20011;-65
2022/02/05 09:06:58;;;;;;;;;;;;;;;4.67;75.96;97404.44;5056433;28;19917;-64
2022/02/05 09:12:00;;;;;;;;;;;;;;;4.30;74.07;97409.56;5060890;28;20421;-64
2022/02/05 09:16:51;;;;;;;;;;;;;;;4.35;74.18;97399.47;5067459;28;20289;-65
2022/02/05 09:19:16;;;;;;;;;;;;;;;4.59;72.92;97394.91;5070115;28;20003;-65
2022/02/05 09:21:42;;;;;;;;;;;;;;;4.51;72.98;97409.75;5057176;28;20023;-64
2022/02/05 09:24:08;;;;;;;;;;;;;;;4.54;73.05;97401.63;5065959;28;19916;-67
2022/02/05 09:26:34;;;;;;;;;;;;;;;4.62;72.14;97395.56;5055769;28;20368;-65
2022/02/05 09:29:03;;;;;;;;;;;;;;;4.78;72.25;97398.84;5070985;28;19916;-64
2022/02/05 09:31:35;;;;;;;;;;;;;;;4.86;70.92;97405.75;5074795;28;19967;-64
2022/02/05 09:34:00;;;;;;;;;;;;;;;4.78;71.49;97405.81;5050468;28;19920;-64
2022/02/05 09:36:26;;;;;;;;;;;;;;;4.90;70.90;97405.22;5055259;28;19979;-64
2022/02/05 09:38:54;;;;;;;;;;;;;;;4.93;70.88;97394.47;5074642;28;19924;-64
2022/02/05 09:41:20;;;;;;;;;;;;;;;4.96;70.75;97401.91;5052653;28;19959;-63
2022/02/05 09:43:47;;;;;;;;;;;;;;;5.07;70.14;97408.47;5053681;28;19952;-63
2022/02/05 09:46:12;;;;;;;;;;;;;;;5.16;69.84;97404.03;5053887;28;19921;-63
2022/02/05 09:48:38;;;;;;;;;;;;;;;5.08;70.50;97404.09;5055209;28;19917;-64
2022/02/05 09:51:07;;;;;;;;;;;;;;;4.97;69.63;97405.31;5065069;28;19921;-63
2022/02/05 09:53:33;;;;;;;;;;;;;;;4.88;69.99;97414.97;5046822;28;20270;-63
2022/02/05 09:55:58;;;;;;;;;;;;;;;5.14;69.41;97422.38;5055037;28;19917;-63
2022/02/05 09:58:23;;;;;;;;;;;;;;;5.24;68.94;97415.13;5059192;28;19912;-63
2022/02/05 10:01:01;;;;;;;;;;;;;;;5.35;68.93;97419.88;5053767;28;19927;-64
2022/02/05 10:03:27;;;;;;;;;;;;;;;5.46;68.44;97418.69;5046159;28;20074;-64
2022/02/05 10:06:12;;;;;;;;;;;;;;;5.63;67.39;97409.69;5040222;28;20015;-65
2022/02/05 10:08:38;;;;;;;;;;;;;;;5.61;67.52;97413.47;5035461;28;20376;-64
2022/02/05 10:11:05;;;;;;;;;;;;;;;5.59;67.15;97421.44;5034737;28;20015;-63
2022/02/05 10:13:31;;;;;;;;;;;;;;;5.59;67.14;97424.03;5043121;28;19919;-65
2022/02/05 10:15:57;;;;;;;;;;;;;;;5.72;66.61;97418.22;5053642;28;20046;-63
2022/02/05 10:18:30;;;;;;;;;;;;;;;5.84;65.71;97414.19;5052619;28;19916;-68
2022/02/05 10:20:57;;;;;;;;;;;;;;;5.60;66.13;97427.44;5038029;28;19936;-63
2022/02/05 10:23:23;;;;;;;;;;;;;;;5.50;65.92;97416.50;5035932;28;20367;-63
2022/02/05 10:25:49;;;;;;;;;;;;;;;5.70;65.60;97418.38;5034733;28;19925;-65
2022/02/05 10:28:15;;;;;;;;;;;;;;;5.77;65.61;97415.88;5034004;28;20469;-64
2022/02/05 10:30:44;;;;;;;;;;;;;;;5.52;66.72;97417.94;5049476;28;20004;-65
2022/02/05 10:33:16;;;;;;;;;;;;;;;5.75;65.54;97420.44;5035708;28;19917;-65
2022/02/05 10:36:03;;;;;;;;;;;;;;;5.65;65.96;97425.13;5035452;28;20031;-65
2022/02/05 10:43:54;;;;;;;;;;;;;;;5.74;65.15;97424.84;5054656;28;20331;-64
2022/02/05 10:46:19;;;;;;;;;;;;;;;5.90;65.04;97423.88;5054728;28;19916;-64
2022/02/05 10:48:45;;;;;;;;;;;;;;;5.86;64.99;97433.00;5054688;28;19918;-65
2022/02/05 10:51:10;;;;;;;;;;;;;;;5.90;64.33;97433.50;5070712;28;20358;-65
2022/02/05 10:53:44;;;;;;;;;;;;;;;6.02;64.37;97432.03;5073929;28;19939;-65
2022/02/05 10:56:27;;;;;;;;;;;;;;;6.28;62.64;97440.16;5074318;28;19919;-65
2022/02/05 11:07:07;;;;;;;;;;;;;;;6.26;61.91;97442.94;5071534;28;20053;-65
2022/02/05 11:09:33;;;;;;;;;;;;;;;6.23;61.61;97448.50;5074016;28;19986;-65
2022/02/05 11:20:00;;;;;;;;;;;;;;;6.40;60.14;97432.69;5052704;28;20004;-64
2022/02/05 11:22:29;;;;;;;;;;;;;;;6.39;59.67;97436.25;5053263;28;19921;-64
2022/02/05 11:24:55;;;;;;;;;;;;;;;6.59;58.59;97439.88;5054243;28;20042;-65
2022/02/05 11:27:20;;;;;;;;;;;;;;;6.47;58.01;97426.53;5054291;28;19944;-64
2022/02/05 11:29:45;;;;;;;;;;;;;;;6.62;58.23;97435.13;5044797;28;19927;-65
2022/02/05 11:32:15;;;;;;;;;;;;;;;6.87;57.74;97432.13;5073201;28;20289;-65
2022/02/05 11:34:48;;;;;;;;;;;;;;;6.95;57.45;97427.59;5052617;28;19916;-67
2022/02/05 11:37:14;;;;;;;;;;;;;;;6.91;57.47;97431.56;5053882;28;20013;-64
2022/02/05 11:39:52;;;;;;;;;;;;;;;7.02;57.21;97425.84;5052904;28;19964;-65
2022/02/05 11:42:24;;;;;;;;;;;;;;;7.12;56.12;97429.94;5053024;28;20389;-65
2022/02/05 11:44:49;;;;;;;;;;;;;;;7.00;56.27;97419.22;5070038;28;19920;-65
2022/02/05 11:47:17;;;;;;;;;;;;;;;7.00;56.45;97421.81;5069275;28;19961;-65
2022/02/05 11:49:51;;;;;;;;;;;;;;;7.01;56.05;97413.00;5072817;28;19942;-66
2022/02/05 11:52:35;;;;;;;;;;;;;;;6.80;55.77;97406.00;5071455;28;20281;-65
2022/02/05 11:55:01;;;;;;;;;;;;;;;7.05;55.77;97399.41;5072893;28;19961;-65
2022/02/05 11:57:44;;;;;;;;;;;;;;;7.27;55.52;97401.97;5073320;28;19958;-65
2022/02/05 12:00:11;;;;;;;;;;;;;;;7.26;54.84;97400.34;5062493;28;19917;-68
2022/02/05 12:02:38;;;;;;;;;;;;;;;7.18;55.27;97393.50;5069018;28;20281;-65
2022/02/05 12:05:20;;;;;;;;;;;;;;;7.29;54.75;97395.59;5070583;28;19923;-65
2022/02/05 12:08:04;;;;;;;;;;;;;;;7.14;54.64;97394.84;5061712;28;20327;-65
2022/02/05 12:10:40;;;;;;;;;;;;;;;7.10;54.85;97396.22;5073176;28;19916;-65
2022/02/05 12:13:20;;;;;;;;;;;;;;;7.20;54.98;97401.91;5055999;28;19916;-65
2022/02/05 12:16:09;;;;;;;;;;;;;;;6.97;55.20;97406.53;5063774;28;20007;-65
2022/02/05 12:18:52;;;;;;;;;;;;;;;7.14;54.70;97397.47;5053163;28;20015;-66
2022/02/05 12:21:27;;;;;;;;;;;;;;;7.18;54.20;97397.91;5052590;28;19924;-66
2022/02/05 12:26:18;;;;;;;;;;;;;;;7.28;53.99;97391.34;5053708;28;19956;-66
2022/02/05 12:28:47;;;;;;;;;;;;;;;7.42;53.83;97397.44;5072812;28;19920;-66
2022/02/05 12:31:19;;;;;;;;;;;;;;;7.60;53.72;97379.50;5061028;28;20015;-66
2022/02/05 12:33:54;;;;;;;;;;;;;;;7.70;53.04;97379.13;5058998;28;19916;-66
2022/02/05 12:36:41;;;;;;;;;;;;;;;7.46;53.07;97373.41;5061375;28;19923;-66
2022/02/05 12:39:26;;;;;;;;;;;;;;;7.39;52.67;97382.19;5073951;28;20011;-66
2022/02/05 12:41:53;;;;;;;;;;;;;;;7.53;52.98;97369.03;5057969;28;19923;-66
2022/02/05 12:44:19;;;;;;;;;;;;;;;7.48;52.69;97360.16;5075920;28;19916;-67
2022/02/05 12:46:46;;;;;;;;;;;;;;;7.49;53.01;97367.81;5076820;28;19969;-66
2022/02/05 12:49:23;;;;;;;;;;;;;;;7.51;52.88;97363.22;5075722;28;20167;-65
2022/02/05 12:51:49;;;;;;;;;;;;;;;7.57;53.38;97366.06;5069628;28;19967;-65
2022/02/05 12:54:19;;;;;;;;;;;;;;;7.55;53.54;97362.81;5056898;28;19916;-65
2022/02/05 12:56:45;;;;;;;;;;;;;;;7.38;53.29;97370.16;5056924;28;20412;-64
2022/02/05 12:59:16;;;;;;;;;;;;;;;7.50;53.90;97355.56;5073034;28;19923;-64
2022/02/05 13:01:51;;;;;;;;;;;;;;;7.52;53.19;97358.81;5055731;28;19974;-65
2022/02/05 13:04:17;;;;;;;;;;;;;;;7.71;52.61;97358.09;5056343;28;19917;-65
2022/02/05 13:06:43;;;;;;;;;;;;;;;7.66;52.86;97362.28;5056732;28;19942;-65
2022/02/05 13:09:37;;;;;;;;;;;;;;;7.68;52.17;97361.09;5074827;28;19920;-65
2022/02/05 13:12:05;;;;;;;;;;;;;;;8.01;51.71;97363.81;5074386;28;19981;-65
2022/02/05 13:14:38;;;;;;;;;;;;;;;8.07;52.20;97362.25;5070136;28;19916;-65
2022/02/05 13:17:03;;;;;;;;;;;;;;;7.95;52.38;97354.16;5069644;28;20366;-67
2022/02/05 13:19:39;;;;;;;;;;;;;;;8.06;51.77;97356.22;5056629;28;19916;-65
2022/02/05 13:25:40;;;;;;;;;;;;;;;7.93;52.05;97356.16;5065888;28;19924;-65
2022/02/05 13:35:54;;;;;;;;;;;;;;;7.86;50.71;97345.69;5066169;28;19939;-65
2022/02/05 13:38:20;;;;;;;;;;;;;;;7.88;50.60;97345.50;5069692;28;20367;-65
2022/02/05 13:40:45;;;;;;;;;;;;;;;8.13;50.25;97341.38;5055950;28;20007;-67
2022/02/05 13:43:18;;;;;;;;;;;;;;;8.14;50.59;97340.34;5069046;28;20413;-66
2022/02/05 13:45:43;;;;;;;;;;;;;;;8.37;49.33;97341.84;5060244;28;20015;-66
2022/02/05 13:48:21;;;;;;;;;;;;;;;8.41;49.63;97340.47;5065685;28;19974;-65
2022/02/05 13:50:47;;;;;;;;;;;;;;;8.54;49.09;97346.47;5074478;28;19966;-65
2022/02/05 13:53:14;;;;;;;;;;;;;;;8.57;49.24;97345.28;5075724;28;19916;-65
2022/02/05 13:55:44;;;;;;;;;;;;;;;8.69;49.38;97343.69;5072744;28;20264;-66
2022/02/05 13:58:14;;;;;;;;;;;;;;;8.64;49.47;97343.47;5059695;28;19921;-65
2022/02/05 14:00:53;;;;;;;;;;;;;;;8.57;49.88;97340.88;5068023;28;19962;-65
2022/02/05 14:03:28;;;;;;;;;;;;;;;8.67;50.02;97340.47;5041533;28;19916;-65
2022/02/05 14:06:05;;;;;;;;;;;;;;;8.88;49.53;97342.06;5065771;28;19963;-65
2022/02/05 14:08:34;;;;;;;;;;;;;;;8.73;49.79;97343.09;5055457;28;20266;-66
2022/02/05 14:11:01;;;;;;;;;;;;;;;8.69;49.00;97343.69;5064195;28;19974;-66
2022/02/05 14:13:26;;;;;;;;;;;;;;;8.77;48.78;97346.91;5058215;28;19999;-66
2022/02/05 14:15:58;;;;;;;;;;;;;;;8.69;48.76;97348.94;5058834;28;20417;-66
2022/02/05 14:18:23;;;;;;;;;;;;;;;8.65;48.50;97343.28;5045155;28;20007;-66
2022/02/05 14:20:52;;;;;;;;;;;;;;;8.50;48.94;97342.66;5054698;28;20015;-66
2022/02/05 14:23:19;;;;;;;;;;;;;;;8.32;49.58;97351.06;5074255;28;20273;-66
2022/02/05 14:26:03;;;;;;;;;;;;;;;8.28;49.96;97346.41;5072518;28;20016;-67
2022/02/05 14:28:40;;;;;;;;;;;;;;;8.07;49.77;97346.56;5066280;28;19963;-66
2022/02/05 14:31:16;;;;;;;;;;;;;;;7.98;49.96;97361.59;5059104;28;19917;-66
2022/02/05 14:33:52;;;;;;;;;;;;;;;7.85;50.86;97361.56;5057890;28;19916;-66
2022/02/05 14:36:36;;;;;;;;;;;;;;;7.62;49.83;97356.66;5064912;28;20366;-67
2022/02/05 14:41:47;;;;;;;;;;;;;;;7.43;50.74;97357.34;5061363;28;19923;-66
2022/02/05 14:44:12;;;;;;;;;;;;;;;7.38;50.75;97351.91;5074529;28;19920;-66
2022/02/05 14:46:40;;;;;;;;;;;;;;;7.25;51.74;97363.03;5070525;28;19916;-66
2022/02/05 14:49:05;;;;;;;;;;;;;;;7.47;52.27;97364.56;5066609;28;19927;-66
2022/02/05 14:51:31;;;;;;;;;;;;;;;7.49;52.15;97361.78;5058858;28;19921;-66
2022/02/05 14:53:58;;;;;;;;;;;;;;;7.48;52.47;97355.75;5055601;28;20020;-66
2022/02/05 14:56:24;;;;;;;;;;;;;;;7.54;52.78;97348.97;5059240;28;19963;-66
2022/02/05 14:58:50;;;;;;;;;;;;;;;7.53;51.83;97350.78;5063016;28;19956;-66
2022/02/05 15:01:20;;;;;;;;;;;;;;;7.30;52.44;97355.44;5053820;28;20358;-68
2022/02/05 15:03:46;;;;;;;;;;;;;;;7.09;52.79;97356.31;5054877;28;19981;-65
2022/02/05 15:06:18;;;;;;;;;;;;;;;7.00;53.59;97356.66;5054212;28;19916;-64
2022/02/05 15:08:44;;;;;;;;;;;;;;;7.04;53.53;97350.06;5063421;28;20030;-66
2022/02/05 15:11:09;;;;;;;;;;;;;;;6.97;53.31;97350.03;5071877;28;20420;-65
2022/02/05 15:13:34;;;;;;;;;;;;;;;6.91;53.38;97348.16;5073698;28;19923;-65
2022/02/05 15:16:02;;;;;;;;;;;;;;;6.74;53.33;97356.47;5072021;28;19920;-64
2022/02/05 15:18:27;;;;;;;;;;;;;;;6.61;53.56;97363.19;5048340;28;20324;-64
2022/02/05 15:20:52;;;;;;;;;;;;;;;6.70;53.33;97353.41;5067190;28;19921;-65
2022/02/05 15:23:19;;;;;;;;;;;;;;;6.65;53.42;97354.00;5056007;28;19917;-64
2022/02/05 15:25:45;;;;;;;;;;;;;;;6.61;53.70;97347.56;5054049;28;19962;-64
2022/02/05 15:28:10;;;;;;;;;;;;;;;6.60;54.63;97347.72;5053633;28;19920;-64
2022/02/05 15:30:35;;;;;;;;;;;;;;;6.59;54.34;97346.91;5060764;28;19920;-65
2022/02/05 15:33:03;;;;;;;;;;;;;;;6.46;54.75;97357.25;5052415;28;19967;-64
2022/02/05 15:35:28;;;;;;;;;;;;;;;6.37;55.13;97350.53;5072889;28;19916;-64
2022/02/05 15:38:00;;;;;;;;;;;;;;;6.39;55.34;97345.94;5072826;28;19922;-64